Time;durP1;ratioP1;P1;durP2;ratioP2;P2;SDS_P1;SDS_P2;PMS_P1;PMS_P2;Temp;Humidity;BMP_temperature;BMP_pressure;BME280_temperature;BME280_humidity;BME280_pressure;Samples;Min_cycle;Max_cycle;Signal;HPM_P1;HPM_P2
2023/06/06 00:00:13;;;;;;;2.95;1.88;;;19.00;57.00;;;;;;5027369;28;20289;-68
2023/06/06 00:02:43;;;;;;;3.97;2.38;;;19.00;57.30;;;;;;5033726;28;20548;-67
2023/06/06 00:05:11;;;;;;;3.10;2.28;;;19.00;58.00;;;;;;5053209;28;20220;-68
2023/06/06 00:07:39;;;;;;;2.90;1.95;;;18.90;57.40;;;;;;5037709;28;20204;-68
2023/06/06 00:10:07;;;;;;;2.10;1.90;;;18.90;57.40;;;;;;5033788;28;20206;-67
2023/06/06 00:12:33;;;;;;;4.45;1.90;;;18.80;57.40;;;;;;5029719;28;20202;-68
2023/06/06 00:15:03;;;;;;;2.97;2.30;;;18.80;57.40;;;;;;5036659;28;20173;-68
2023/06/06 00:17:33;;;;;;;3.10;1.88;;;18.70;57.60;;;;;;5033813;28;20191;-68
2023/06/06 00:19:59;;;;;;;5.25;2.25;;;18.70;57.50;;;;;;5033054;28;20189;-68
2023/06/06 00:22:24;;;;;;;2.65;1.95;;;18.60;57.50;;;;;;5035484;28;20230;-65
2023/06/06 00:24:56;;;;;;;2.90;1.83;;;18.60;57.50;;;;;;5036215;28;20254;-68
2023/06/06 00:27:24;;;;;;;2.83;1.80;;;18.50;57.60;;;;;;5034274;28;20174;-68
2023/06/06 00:29:54;;;;;;;2.90;1.92;;;18.50;58.10;;;;;;5034352;28;20192;-68
2023/06/06 00:32:22;;;;;;;2.60;2.17;;;18.40;58.20;;;;;;5033372;28;20181;-68
2023/06/06 00:34:50;;;;;;;3.70;2.13;;;18.40;58.10;;;;;;5031994;28;20186;-68
2023/06/06 00:37:16;;;;;;;2.85;2.08;;;18.30;58.50;;;;;;5036002;28;20201;-68
2023/06/06 00:39:44;;;;;;;2.63;1.92;;;18.30;58.30;;;;;;5031026;28;20296;-68
2023/06/06 00:42:12;;;;;;;5.15;2.20;;;18.30;58.60;;;;;;5051723;28;20193;-68
2023/06/06 00:44:40;;;;;;;2.30;2.00;;;18.20;58.90;;;;;;5035431;28;20201;-68
2023/06/06 00:47:06;;;;;;;2.60;1.98;;;18.20;58.80;;;;;;5030723;28;20178;-68
2023/06/06 00:49:35;;;;;;;3.55;2.03;;;18.10;59.10;;;;;;5035109;28;20193;-68
2023/06/06 00:52:04;;;;;;;2.47;1.85;;;18.10;58.90;;;;;;5041135;28;20205;-66
2023/06/06 00:54:34;;;;;;;2.60;2.03;;;18.10;59.20;;;;;;5032129;28;20208;-67
2023/06/06 00:57:01;;;;;;;3.17;1.90;;;18.00;59.20;;;;;;5034476;28;20192;-68
2023/06/06 00:59:32;;;;;;;2.10;1.75;;;18.00;59.30;;;;;;5036060;28;20232;-67
2023/06/06 01:01:58;;;;;;;2.00;1.70;;;18.00;59.60;;;;;;5045560;28;20188;-65
2023/06/06 01:04:30;;;;;;;3.05;2.00;;;17.90;59.20;;;;;;5034654;28;20193;-67
2023/06/06 01:06:57;;;;;;;2.38;1.98;;;17.90;59.70;;;;;;5039683;28;20201;-66
2023/06/06 01:09:25;;;;;;;2.60;1.80;;;17.90;59.50;;;;;;5025859;28;20177;-66
2023/06/06 01:11:57;;;;;;;2.60;2.10;;;17.80;59.40;;;;;;5034200;28;20209;-64
2023/06/06 01:14:43;;;;;;;2.63;2.05;;;17.70;60.00;;;;;;5035757;28;20184;-69
2023/06/06 01:17:12;;;;;;;3.95;1.92;;;17.70;60.80;;;;;;5030000;28;20177;-68
2023/06/06 01:19:41;;;;;;;2.33;2.10;;;17.60;59.70;;;;;;5050272;28;20202;-66
2023/06/06 01:22:13;;;;;;;3.47;2.03;;;17.50;59.90;;;;;;5048525;28;20205;-65
2023/06/06 01:24:44;;;;;;;2.83;2.22;;;17.40;60.00;;;;;;5033151;28;20193;-67
2023/06/06 01:27:10;;;;;;;3.10;2.05;;;17.40;60.50;;;;;;5038451;28;20204;-67
2023/06/06 01:29:37;;;;;;;2.85;2.00;;;17.30;60.30;;;;;;5043211;28;20217;-67
2023/06/06 01:32:12;;;;;;;3.47;2.20;;;17.20;60.50;;;;;;5020466;28;20235;-66
2023/06/06 01:34:55;;;;;;;3.60;2.05;;;17.20;61.90;;;;;;5034734;28;20173;-67
2023/06/06 01:37:35;;;;;;;2.83;2.08;;;17.10;61.70;;;;;;5030360;28;20178;-67
2023/06/06 01:40:08;;;;;;;2.65;2.10;;;17.10;62.00;;;;;;5030233;28;20201;-66
2023/06/06 01:42:41;;;;;;;4.10;2.28;;;17.00;61.90;;;;;;5034888;28;20216;-68
2023/06/06 01:45:10;;;;;;;3.35;2.08;;;17.00;61.90;;;;;;5051799;28;20173;-67
2023/06/06 01:47:43;;;;;;;2.97;2.17;;;16.90;61.80;;;;;;5034874;28;20178;-66
2023/06/06 01:50:09;;;;;;;2.92;2.25;;;16.90;62.00;;;;;;5034866;28;20190;-67
2023/06/06 01:52:40;;;;;;;3.35;2.17;;;16.90;62.00;;;;;;5040021;28;20223;-68
2023/06/06 01:55:10;;;;;;;4.68;2.20;;;16.80;62.40;;;;;;5032344;28;20193;-65
2023/06/06 01:57:36;;;;;;;3.45;2.20;;;16.80;62.30;;;;;;5053235;28;20178;-66
2023/06/06 02:00:09;;;;;;;3.35;2.15;;;16.80;62.50;;;;;;5037511;28;20205;-67
2023/06/06 02:02:37;;;;;;;6.78;2.20;;;16.70;63.00;;;;;;5032932;28;20178;-68
2023/06/06 02:05:05;;;;;;;3.47;2.47;;;16.70;62.70;;;;;;5036840;28;20261;-68
2023/06/06 02:07:34;;;;;;;3.50;2.30;;;16.70;63.00;;;;;;5034334;28;20230;-66
2023/06/06 02:10:07;;;;;;;3.53;2.17;;;16.60;63.80;;;;;;5030235;28;20200;-67
2023/06/06 02:12:36;;;;;;;3.58;2.60;;;16.60;63.30;;;;;;5021860;28;20237;-67
2023/06/06 02:15:02;;;;;;;4.25;2.33;;;16.60;63.40;;;;;;5041436;28;20178;-68
2023/06/06 02:17:31;;;;;;;3.15;2.33;;;16.50;63.60;;;;;;5042504;28;20183;-68
2023/06/06 02:19:58;;;;;;;3.22;2.25;;;16.50;64.20;;;;;;5044711;28;20201;-67
2023/06/06 02:22:24;;;;;;;3.53;2.17;;;16.50;64.00;;;;;;5036001;28;20407;-67
2023/06/06 02:24:52;;;;;;;3.03;1.98;;;16.50;64.30;;;;;;5028937;28;20296;-68
2023/06/06 02:27:21;;;;;;;3.30;2.20;;;16.40;64.30;;;;;;5039993;28;20260;-68
2023/06/06 02:29:48;;;;;;;2.67;2.28;;;16.40;64.50;;;;;;5037124;28;20216;-67
2023/06/06 02:32:14;;;;;;;3.35;2.22;;;16.40;64.70;;;;;;5035737;28;20201;-67
2023/06/06 02:34:40;;;;;;;3.50;2.30;;;16.30;64.50;;;;;;5038032;28;20406;-67
2023/06/06 02:37:06;;;;;;;6.28;2.40;;;16.40;65.00;;;;;;5051730;28;20204;-64
2023/06/06 02:39:35;;;;;;;3.80;2.13;;;16.30;65.00;;;;;;5035361;28;20388;-66
2023/06/06 02:42:05;;;;;;;3.03;2.50;;;16.20;65.30;;;;;;5029292;28;20205;-64
2023/06/06 02:44:33;;;;;;;2.60;2.20;;;16.20;65.50;;;;;;5035733;28;20217;-66
2023/06/06 02:46:59;;;;;;;3.85;2.53;;;16.20;65.30;;;;;;5036995;28;20789;-68
2023/06/06 02:49:27;;;;;;;3.50;2.38;;;16.10;65.40;;;;;;5045600;28;20205;-67
2023/06/06 02:52:00;;;;;;;3.17;2.38;;;16.10;65.50;;;;;;5038356;28;20185;-66
2023/06/06 02:54:28;;;;;;;6.60;2.65;;;16.00;66.30;;;;;;5032645;28;20209;-65
2023/06/06 02:56:56;;;;;;;3.90;2.45;;;16.00;66.40;;;;;;5034058;28;20229;-67
2023/06/06 02:59:22;;;;;;;3.42;2.50;;;15.90;66.70;;;;;;5036140;28;20201;-66
2023/06/06 03:01:50;;;;;;;3.30;2.40;;;15.90;66.50;;;;;;5036490;28;20188;-67
2023/06/06 03:04:15;;;;;;;3.25;2.33;;;15.80;66.70;;;;;;5034825;28;20173;-68
2023/06/06 03:06:41;;;;;;;3.97;2.63;;;15.80;67.00;;;;;;5041427;28;20246;-68
2023/06/06 03:09:12;;;;;;;3.83;2.55;;;15.70;67.20;;;;;;5052563;28;20173;-66
2023/06/06 03:11:38;;;;;;;3.25;2.50;;;15.70;67.40;;;;;;5025697;28;20170;-67
2023/06/06 03:14:07;;;;;;;4.43;2.58;;;15.70;67.50;;;;;;5037013;28;20189;-67
2023/06/06 03:16:35;;;;;;;3.83;2.90;;;15.70;68.10;;;;;;5036471;28;20184;-66
2023/06/06 03:19:03;;;;;;;3.40;2.45;;;15.60;67.90;;;;;;5037577;28;20196;-66
2023/06/06 03:21:29;;;;;;;4.65;2.38;;;15.60;68.20;;;;;;5031677;28;20215;-66
2023/06/06 03:23:55;;;;;;;2.67;2.15;;;15.60;69.40;;;;;;5037563;28;20173;-68
2023/06/06 03:26:20;;;;;;;4.57;2.33;;;15.60;68.90;;;;;;5038390;28;20276;-68
2023/06/06 03:28:46;;;;;;;5.22;2.47;;;15.60;69.20;;;;;;5038340;28;20201;-68
2023/06/06 03:31:15;;;;;;;2.60;2.22;;;15.60;69.20;;;;;;5038206;28;20184;-68
2023/06/06 03:33:43;;;;;;;3.00;2.17;;;15.60;69.40;;;;;;5051871;28;20227;-70
2023/06/06 03:36:08;;;;;;;3.75;2.42;;;15.60;70.00;;;;;;5034481;28;20179;-68
2023/06/06 03:38:34;;;;;;;3.10;2.40;;;15.50;69.70;;;;;;5053950;28;20260;-69
2023/06/06 03:41:00;;;;;;;3.00;2.13;;;15.50;70.10;;;;;;5024381;28;20226;-69
2023/06/06 03:43:25;;;;;;;3.90;2.38;;;15.50;70.10;;;;;;5037531;28;20184;-70
2023/06/06 03:45:51;;;;;;;3.60;2.53;;;15.50;70.10;;;;;;5036247;28;20185;-69
2023/06/06 03:48:19;;;;;;;4.05;2.28;;;15.50;70.40;;;;;;5037890;28;20227;-68
2023/06/06 03:50:44;;;;;;;3.70;2.15;;;15.40;70.50;;;;;;5050691;28;20281;-69
2023/06/06 03:53:10;;;;;;;4.25;2.55;;;15.40;70.90;;;;;;5046750;28;20244;-69
2023/06/06 03:55:38;;;;;;;4.63;2.50;;;15.40;71.30;;;;;;5043809;28;20194;-69
2023/06/06 03:58:07;;;;;;;2.92;2.60;;;15.40;72.00;;;;;;5033057;28;20200;-70
2023/06/06 04:00:39;;;;;;;4.30;2.83;;;15.40;71.90;;;;;;5040215;28;20218;-69
2023/06/06 04:03:10;;;;;;;3.30;2.55;;;15.30;72.20;;;;;;5018308;28;20198;-69
2023/06/06 04:05:36;;;;;;;4.85;2.60;;;15.30;73.00;;;;;;5031935;28;20254;-69
2023/06/06 04:08:04;;;;;;;3.58;3.13;;;15.30;72.70;;;;;;5028907;28;20173;-69
2023/06/06 04:10:32;;;;;;;3.42;2.80;;;15.30;73.50;;;;;;5037999;28;20237;-69
2023/06/06 04:13:00;;;;;;;6.72;2.60;;;15.30;73.90;;;;;;5033963;28;20208;-69
2023/06/06 04:15:25;;;;;;;3.58;2.85;;;15.30;74.00;;;;;;5036639;28;20174;-69
2023/06/06 04:17:54;;;;;;;4.65;3.08;;;15.30;74.00;;;;;;5033757;28;20192;-69
2023/06/06 04:20:19;;;;;;;3.38;2.70;;;15.40;74.60;;;;;;5034647;28;20280;-69
2023/06/06 04:22:45;;;;;;;4.13;3.10;;;15.40;74.80;;;;;;5035408;28;20211;-69
2023/06/06 04:25:14;;;;;;;5.13;3.03;;;15.40;75.00;;;;;;5052381;28;20199;-69
2023/06/06 04:27:44;;;;;;;6.15;3.17;;;15.40;75.30;;;;;;5053005;28;20192;-69
2023/06/06 04:30:14;;;;;;;4.65;2.78;;;15.40;76.70;;;;;;5047556;28;20218;-69
2023/06/06 04:32:43;;;;;;;4.22;3.22;;;15.40;76.00;;;;;;5048179;28;20283;-70
2023/06/06 04:35:11;;;;;;;3.55;3.08;;;15.50;76.60;;;;;;5031080;28;20185;-68
2023/06/06 04:37:37;;;;;;;3.28;2.97;;;15.50;77.00;;;;;;5035420;28;20271;-69
2023/06/06 04:40:06;;;;;;;4.15;2.60;;;15.50;76.70;;;;;;5035543;28;20292;-71
2023/06/06 04:42:35;;;;;;;4.05;2.60;;;15.50;77.00;;;;;;5030905;28;20209;-68
2023/06/06 04:45:05;;;;;;;3.63;2.80;;;15.50;78.20;;;;;;5034577;28;20197;-69
2023/06/06 04:47:31;;;;;;;5.70;3.08;;;15.60;78.50;;;;;;5035812;28;20196;-69
2023/06/06 04:49:58;;;;;;;5.03;3.10;;;15.60;78.30;;;;;;5035213;28;20180;-69
2023/06/06 04:52:24;;;;;;;4.65;2.85;;;15.60;78.50;;;;;;5048352;28;20248;-69
2023/06/06 04:54:51;;;;;;;5.97;2.95;;;15.60;78.80;;;;;;5035726;28;20193;-69
2023/06/06 04:57:17;;;;;;;4.18;2.97;;;15.60;79.20;;;;;;5034373;28;20243;-69
2023/06/06 04:59:50;;;;;;;5.20;3.05;;;15.60;79.80;;;;;;5047558;28;20204;-68
2023/06/06 05:02:20;;;;;;;3.67;3.00;;;15.60;80.20;;;;;;5035390;28;20209;-69
2023/06/06 05:04:52;;;;;;;3.97;3.25;;;15.60;80.20;;;;;;5033682;28;20495;-69
2023/06/06 05:07:18;;;;;;;4.50;2.75;;;15.70;81.00;;;;;;5052043;28;20173;-68
2023/06/06 05:09:48;;;;;;;5.18;3.17;;;15.70;81.00;;;;;;5032580;28;20243;-68
2023/06/06 05:12:14;;;;;;;5.35;3.25;;;15.70;81.40;;;;;;5048472;28;20205;-67
2023/06/06 05:14:40;;;;;;;4.80;3.50;;;15.80;82.20;;;;;;5032995;28;20181;-68
2023/06/06 05:17:08;;;;;;;4.63;3.17;;;15.80;82.60;;;;;;5033214;28;20268;-68
2023/06/06 05:19:36;;;;;;;5.00;3.30;;;15.80;83.30;;;;;;5034640;28;20285;-68
2023/06/06 05:22:01;;;;;;;4.93;3.10;;;15.90;83.90;;;;;;5021496;28;20218;-69
2023/06/06 05:24:27;;;;;;;4.90;3.33;;;15.90;84.30;;;;;;5027020;28;20202;-68
2023/06/06 05:26:53;;;;;;;4.40;3.15;;;16.00;84.80;;;;;;5035542;28;20208;-70
2023/06/06 05:29:18;;;;;;;7.70;3.58;;;16.10;85.20;;;;;;5031720;28;20277;-71
2023/06/06 05:31:44;;;;;;;4.75;3.58;;;16.10;85.60;;;;;;5048350;28;20264;-71
2023/06/06 05:34:09;;;;;;;5.38;3.50;;;16.20;86.10;;;;;;5052434;28;20181;-71
2023/06/06 05:36:37;;;;;;;6.70;3.95;;;16.20;86.50;;;;;;5032966;28;20263;-71
2023/06/06 05:39:06;;;;;;;3.63;2.92;;;16.30;88.30;;;;;;5031037;28;20174;-72
2023/06/06 05:41:31;;;;;;;5.35;3.67;;;16.40;88.10;;;;;;5046927;28;20223;-72
2023/06/06 05:43:57;;;;;;;5.05;3.60;;;16.50;89.20;;;;;;5032360;28;20201;-72
2023/06/06 05:46:25;;;;;;;6.22;3.17;;;16.60;88.80;;;;;;5037421;28;20243;-72
2023/06/06 05:48:51;;;;;;;4.55;3.20;;;16.60;89.00;;;;;;5040235;28;20177;-72
2023/06/06 05:51:17;;;;;;;4.93;3.40;;;16.70;89.30;;;;;;5037961;28;20196;-71
2023/06/06 05:53:45;;;;;;;5.70;3.55;;;16.80;89.60;;;;;;5051977;28;20205;-72
2023/06/06 05:56:12;;;;;;;4.65;3.50;;;16.80;89.70;;;;;;5040809;28;20189;-72
2023/06/06 05:58:39;;;;;;;6.43;3.83;;;16.90;90.10;;;;;;5029471;28;20170;-71
2023/06/06 06:01:05;;;;;;;5.57;3.83;;;16.90;90.10;;;;;;5039567;28;20259;-72
2023/06/06 06:03:36;;;;;;;5.18;3.55;;;17.00;90.30;;;;;;5039654;28;20206;-71
2023/06/06 06:06:05;;;;;;;4.60;3.60;;;17.00;90.50;;;;;;5040594;28;20181;-68
2023/06/06 06:08:34;;;;;;;5.68;4.00;;;17.10;90.70;;;;;;5039750;28;20173;-68
2023/06/06 06:11:00;;;;;;;7.47;4.15;;;17.10;90.60;;;;;;5046167;28;20188;-67
2023/06/06 06:13:28;;;;;;;5.22;3.33;;;17.20;90.80;;;;;;5054718;28;20184;-68
2023/06/06 06:15:53;;;;;;;4.97;3.60;;;17.30;90.90;;;;;;5037932;28;20233;-69
2023/06/06 06:18:21;;;;;;;5.63;3.65;;;17.30;90.90;;;;;;5039671;28;20239;-67
2023/06/06 06:20:47;;;;;;;4.63;3.38;;;17.40;91.20;;;;;;5029986;28;20212;-67
2023/06/06 06:23:13;;;;;;;6.93;3.80;;;17.50;91.10;;;;;;5050291;28;20288;-67
2023/06/06 06:25:39;;;;;;;5.10;3.75;;;17.50;91.10;;;;;;5054694;28;20178;-67
2023/06/06 06:28:20;;;;;;;5.35;3.88;;;17.60;90.90;;;;;;5036162;28;20182;-67
2023/06/06 06:30:46;;;;;;;6.20;3.38;;;17.70;91.60;;;;;;5031534;28;20239;-66
2023/06/06 06:33:12;;;;;;;3.60;3.30;;;17.70;91.00;;;;;;5035984;28;20181;-67
2023/06/06 06:35:37;;;;;;;5.38;3.40;;;17.80;91.10;;;;;;5038749;28;20201;-67
2023/06/06 06:38:03;;;;;;;5.68;4.07;;;17.90;91.20;;;;;;5034500;28;20181;-67
2023/06/06 06:40:29;;;;;;;5.72;4.07;;;17.90;91.10;;;;;;5039034;28;20284;-67
2023/06/06 06:42:57;;;;;;;6.32;3.70;;;17.90;91.20;;;;;;5029307;28;20244;-68
2023/06/06 06:45:26;;;;;;;5.75;3.92;;;18.00;91.40;;;;;;5030845;28;20173;-67
2023/06/06 06:47:52;;;;;;;5.07;3.58;;;18.00;91.20;;;;;;5038459;28;20186;-68
2023/06/06 06:50:18;;;;;;;6.53;3.63;;;18.10;91.20;;;;;;5055269;28;20204;-67
2023/06/06 06:52:48;;;;;;;6.90;3.58;;;18.10;91.20;;;;;;5038776;28;20181;-68
2023/06/06 06:55:14;;;;;;;5.68;4.15;;;18.20;91.30;;;;;;5037770;28;20228;-67
2023/06/06 06:57:43;;;;;;;5.55;4.00;;;18.20;91.40;;;;;;5038830;28;20181;-68
2023/06/06 07:00:12;;;;;;;6.05;4.03;;;18.30;91.80;;;;;;5046058;28;20190;-68
2023/06/06 07:02:39;;;;;;;5.95;3.78;;;18.40;91.40;;;;;;5036579;28;20208;-68
2023/06/06 07:05:07;;;;;;;5.53;3.60;;;18.40;91.40;;;;;;5019164;28;20233;-68
2023/06/06 07:07:41;;;;;;;7.40;4.05;;;18.50;91.50;;;;;;5047628;28;20185;-68
2023/06/06 07:10:09;;;;;;;5.35;3.85;;;18.50;91.50;;;;;;5048807;28;20195;-69
2023/06/06 07:12:35;;;;;;;6.07;4.13;;;18.60;91.90;;;;;;5036641;28;20270;-69
2023/06/06 07:15:01;;;;;;;4.65;3.88;;;18.70;92.00;;;;;;5038384;28;20228;-68
2023/06/06 07:17:26;;;;;;;6.07;4.47;;;18.70;91.80;;;;;;5037634;28;20303;-68
2023/06/06 07:19:52;;;;;;;6.90;4.25;;;18.80;91.80;;;;;;5037527;28;20219;-68
2023/06/06 07:22:20;;;;;;;5.32;4.10;;;18.80;91.60;;;;;;5029488;28;20170;-68
2023/06/06 07:24:47;;;;;;;5.82;4.40;;;18.90;91.70;;;;;;5044781;28;20165;-67
2023/06/06 07:27:15;;;;;;;6.18;4.15;;;18.90;91.90;;;;;;5038131;28;20357;-68
2023/06/06 07:29:41;;;;;;;6.72;4.60;;;19.00;92.00;;;;;;5036077;28;20184;-68
2023/06/06 07:32:07;;;;;;;6.28;4.28;;;19.10;92.00;;;;;;5018610;28;20194;-68
2023/06/06 07:34:35;;;;;;;8.70;4.32;;;19.10;92.00;;;;;;5046613;28;20319;-67
2023/06/06 07:37:00;;;;;;;5.90;4.10;;;19.20;91.90;;;;;;5044070;28;20174;-68
2023/06/06 07:39:26;;;;;;;7.03;4.93;;;19.30;92.00;;;;;;5036438;28;20212;-68
2023/06/06 07:41:52;;;;;;;7.03;4.35;;;19.30;92.00;;;;;;5037232;28;20190;-68
2023/06/06 07:44:18;;;;;;;7.95;4.45;;;19.40;92.10;;;;;;5032592;28;20251;-68
2023/06/06 07:46:46;;;;;;;5.35;3.72;;;19.50;92.10;;;;;;5036930;28;20178;-68
2023/06/06 07:49:14;;;;;;;6.32;4.20;;;19.60;92.10;;;;;;5050299;28;20197;-68
2023/06/06 07:51:42;;;;;;;5.15;4.32;;;19.60;92.00;;;;;;5036959;28;20197;-68
2023/06/06 07:54:12;;;;;;;6.63;4.28;;;19.70;92.10;;;;;;5034863;28;20210;-67
2023/06/06 07:56:39;;;;;;;5.85;4.05;;;19.80;92.00;;;;;;5052219;28;20192;-68
2023/06/06 07:59:04;;;;;;;4.95;4.10;;;19.90;92.20;;;;;;5041896;28;20180;-68
2023/06/06 08:01:31;;;;;;;7.00;4.38;;;19.90;92.10;;;;;;5040196;28;20291;-67
2023/06/06 08:03:56;;;;;;;6.20;4.18;;;20.00;92.10;;;;;;5043924;28;20169;-68
2023/06/06 08:06:27;;;;;;;6.68;4.80;;;20.10;92.10;;;;;;5037789;28;20260;-68
2023/06/06 08:08:53;;;;;;;4.78;3.83;;;20.20;92.10;;;;;;5036339;28;20192;-67
2023/06/06 08:11:19;;;;;;;6.05;4.60;;;20.30;92.00;;;;;;5054188;28;20177;-67
2023/06/06 08:13:47;;;;;;;6.55;4.55;;;20.40;91.90;;;;;;5037242;28;20177;-68
2023/06/06 08:16:15;;;;;;;5.93;4.65;;;20.40;91.90;;;;;;5037104;28;20197;-68
2023/06/06 08:18:43;;;;;;;5.90;4.20;;;20.50;91.80;;;;;;5054022;28;20281;-68
2023/06/06 08:21:12;;;;;;;7.57;4.50;;;20.60;91.80;;;;;;5053885;28;20296;-68
2023/06/06 08:23:37;;;;;;;5.18;4.45;;;20.60;91.80;;;;;;5054017;28;20201;-68
2023/06/06 08:26:03;;;;;;;5.30;4.30;;;20.70;91.80;;;;;;5037566;28;20212;-68
2023/06/06 08:28:29;;;;;;;12.50;4.90;;;20.80;91.70;;;;;;5037435;28;20176;-68
2023/06/06 08:30:54;;;;;;;7.15;4.55;;;20.80;91.70;;;;;;5049191;28;20177;-67
2023/06/06 08:33:23;;;;;;;5.35;4.40;;;20.90;91.60;;;;;;5053154;28;20192;-68
2023/06/06 08:35:49;;;;;;;6.63;4.85;;;21.00;91.60;;;;;;5036303;28;20203;-68
2023/06/06 08:38:17;;;;;;;5.32;4.72;;;21.10;91.70;;;;;;5024966;28;20371;-68
2023/06/06 08:40:45;;;;;;;5.20;4.18;;;21.10;91.60;;;;;;5052884;28;20242;-67
2023/06/06 08:43:13;;;;;;;5.85;4.60;;;21.20;91.50;;;;;;5036066;28;20226;-68
2023/06/06 08:45:56;;;;;;;5.95;4.70;;;21.30;91.40;;;;;;5036098;28;20197;-69
2023/06/06 08:48:28;;;;;;;6.63;4.50;;;21.50;91.00;;;;;;5027737;28;20411;-67
2023/06/06 08:50:55;;;;;;;5.35;4.45;;;21.50;91.40;;;;;;5037752;28;20169;-67
2023/06/06 08:53:21;;;;;;;7.35;5.25;;;21.50;91.30;;;;;;5036500;28;20290;-67
2023/06/06 08:55:47;;;;;;;6.65;5.13;;;21.60;91.20;;;;;;5041155;28;20188;-67
2023/06/06 08:58:14;;;;;;;8.02;5.05;;;21.70;91.10;;;;;;5036174;28;20236;-68
2023/06/06 09:00:42;;;;;;;5.70;4.47;;;21.80;91.20;;;;;;5036364;28;20216;-67
2023/06/06 09:03:11;;;;;;;6.22;4.38;;;21.80;91.10;;;;;;5036889;28;20191;-67
2023/06/06 09:05:40;;;;;;;5.00;3.88;;;21.90;91.00;;;;;;5049108;28;20174;-68
2023/06/06 09:08:07;;;;;;;5.05;3.72;;;22.00;90.90;;;;;;5046312;28;20171;-68
2023/06/06 09:10:32;;;;;;;5.25;4.60;;;22.10;90.70;;;;;;5032320;28;20178;-68
2023/06/06 09:12:58;;;;;;;4.60;3.88;;;22.20;90.60;;;;;;5025692;28;20275;-68
2023/06/06 09:15:25;;;;;;;6.28;4.03;;;22.30;90.40;;;;;;5036707;28;20188;-69
2023/06/06 09:17:55;;;;;;;3.42;2.97;;;22.40;89.70;;;;;;5032714;28;20197;-68
2023/06/06 09:20:23;;;;;;;5.40;3.03;;;22.50;88.10;;;;;;5038426;28;20205;-68
2023/06/06 09:22:50;;;;;;;3.92;3.00;;;22.60;87.40;;;;;;5056940;28;20192;-68
2023/06/06 09:25:27;;;;;;;5.93;3.35;;;22.70;87.60;;;;;;5036968;28;20251;-68
2023/06/06 09:28:05;;;;;;;4.25;2.70;;;22.70;86.80;;;;;;5058073;28;20237;-68
2023/06/06 09:30:32;;;;;;;3.22;2.60;;;22.80;85.60;;;;;;5057098;28;20176;-68
2023/06/06 09:33:01;;;;;;;3.10;2.30;;;22.90;85.50;;;;;;5040549;28;20360;-68
2023/06/06 09:35:33;;;;;;;3.08;2.50;;;23.10;85.10;;;;;;5032851;28;20180;-68
2023/06/06 09:38:16;;;;;;;2.42;2.20;;;23.20;84.30;;;;;;5056414;28;20308;-69
2023/06/06 09:40:52;;;;;;;4.35;2.65;;;23.30;83.90;;;;;;5057066;28;20231;-68
2023/06/06 09:43:27;;;;;;;3.80;2.20;;;23.40;84.50;;;;;;5039922;28;20196;-68
2023/06/06 09:45:58;;;;;;;3.28;2.22;;;23.50;83.60;;;;;;5048080;28;20264;-68
2023/06/06 09:48:27;;;;;;;4.38;2.50;;;23.60;83.90;;;;;;5050881;28;20173;-67
2023/06/06 09:50:55;;;;;;;3.97;2.58;;;23.70;84.10;;;;;;5039516;28;20188;-68
2023/06/06 09:53:28;;;;;;;5.90;2.72;;;23.80;83.90;;;;;;5039663;28;20284;-67
2023/06/06 09:55:57;;;;;;;7.47;2.80;;;23.90;83.20;;;;;;5040140;28;20205;-68
2023/06/06 09:58:25;;;;;;;3.30;2.65;;;23.90;83.60;;;;;;5039948;28;20204;-67
2023/06/06 10:00:58;;;;;;;5.03;2.88;;;24.10;83.70;;;;;;5034813;28;20213;-67
2023/06/06 10:03:25;;;;;;;4.90;2.72;;;24.10;82.70;;;;;;5039954;28;20197;-68
2023/06/06 10:05:54;;;;;;;2.75;2.45;;;24.20;82.10;;;;;;5043795;28;20201;-67
2023/06/06 10:08:23;;;;;;;2.58;2.35;;;24.30;81.90;;;;;;5036170;28;20261;-67
2023/06/06 10:10:50;;;;;;;3.60;2.38;;;24.40;81.40;;;;;;5029197;28;20267;-68
2023/06/06 10:13:22;;;;;;;2.83;2.40;;;24.50;81.30;;;;;;5044062;28;20204;-67
2023/06/06 10:15:51;;;;;;;3.40;2.47;;;24.60;79.90;;;;;;5036473;28;20174;-68
2023/06/06 10:18:18;;;;;;;3.95;2.60;;;24.70;80.00;;;;;;5039964;28;20212;-68
2023/06/06 10:20:51;;;;;;;4.47;2.65;;;24.80;79.10;;;;;;5049602;28;20542;-67
2023/06/06 10:23:19;;;;;;;5.53;2.25;;;24.90;78.20;;;;;;5025899;28;20205;-68
2023/06/06 10:25:46;;;;;;;4.90;2.30;;;25.00;78.80;;;;;;5038598;28;20421;-67
2023/06/06 10:28:32;;;;;;;3.83;2.50;;;25.20;78.30;;;;;;5023166;28;20454;-68
2023/06/06 10:31:15;;;;;;;3.60;2.50;;;25.30;77.30;;;;;;5035574;28;20240;-68
2023/06/06 10:33:51;;;;;;;2.90;2.30;;;25.40;77.50;;;;;;5039544;28;20161;-68
2023/06/06 10:36:20;;;;;;;4.80;2.60;;;25.50;76.50;;;;;;5036686;28;20269;-68
2023/06/06 10:39:21;;;;;;;4.43;2.70;;;25.70;77.00;;;;;;5055262;28;20182;-69
2023/06/06 10:42:08;;;;;;;3.22;2.50;;;25.90;75.60;;;;;;5038519;28;20216;-69
2023/06/06 10:44:46;;;;;;;4.20;2.50;;;26.20;75.50;;;;;;5036430;28;20170;-69
2023/06/06 10:47:21;;;;;;;3.40;2.25;;;26.40;76.40;;;;;;5039251;28;20197;-69
2023/06/06 10:50:11;;;;;;;5.75;2.45;;;26.60;76.10;;;;;;5038683;28;20185;-68
2023/06/06 10:52:51;;;;;;;3.47;2.28;;;26.90;74.90;;;;;;5036678;28;20173;-68
2023/06/06 10:55:17;;;;;;;4.35;3.40;;;27.20;75.40;;;;;;5044100;28;20189;-68
2023/06/06 10:58:04;;;;;;;4.65;3.40;;;27.40;76.00;;;;;;5048841;28;20183;-68
2023/06/06 11:00:35;;;;;;;3.50;2.80;;;27.60;73.00;;;;;;5038636;28;20200;-67
2023/06/06 11:03:08;;;;;;;4.25;2.85;;;27.70;73.20;;;;;;5038523;28;20200;-68
2023/06/06 11:05:53;;;;;;;2.97;2.60;;;27.90;73.00;;;;;;5025191;28;20224;-68
2023/06/06 11:08:30;;;;;;;3.10;2.58;;;28.00;73.30;;;;;;5050466;28;20177;-68
2023/06/06 11:11:22;;;;;;;4.18;2.20;;;28.20;72.30;;;;;;5055039;28;20193;-68
2023/06/06 11:13:56;;;;;;;2.70;2.45;;;28.40;69.90;;;;;;5026130;28;20200;-69
2023/06/06 11:16:37;;;;;;;3.63;2.58;;;28.50;71.60;;;;;;5051870;28;20382;-68
2023/06/06 11:19:04;;;;;;;2.80;2.30;;;28.70;69.80;;;;;;5038260;28;20195;-69
2023/06/06 11:21:34;;;;;;;3.80;2.28;;;28.80;70.80;;;;;;5027122;28;20193;-69
2023/06/06 11:24:01;;;;;;;4.03;2.55;;;28.90;70.30;;;;;;5038434;28;20201;-68
2023/06/06 11:26:27;;;;;;;3.45;2.25;;;29.00;69.30;;;;;;5038086;28;20173;-69
2023/06/06 11:28:55;;;;;;;3.75;2.50;;;29.20;69.10;;;;;;5055361;28;20224;-69
2023/06/06 11:31:23;;;;;;;3.83;2.35;;;29.30;68.30;;;;;;5054852;28;20196;-68
2023/06/06 11:33:48;;;;;;;3.17;2.35;;;29.50;67.40;;;;;;5055090;28;20380;-68
2023/06/06 11:36:15;;;;;;;2.33;1.95;;;29.60;67.20;;;;;;5037633;28;20181;-69
2023/06/06 11:38:43;;;;;;;4.07;2.70;;;29.70;67.10;;;;;;5042875;28;20267;-66
2023/06/06 11:41:09;;;;;;;3.90;3.20;;;29.90;65.60;;;;;;5034193;28;20193;-66
2023/06/06 11:43:35;;;;;;;5.63;2.65;;;30.00;65.20;;;;;;5033878;28;20215;-66
2023/06/06 11:46:09;;;;;;;6.43;2.50;;;30.10;64.70;;;;;;5054624;28;20227;-65
2023/06/06 11:48:39;;;;;;;2.72;2.30;;;30.20;61.80;;;;;;5028876;28;20180;-65
2023/06/06 11:51:15;;;;;;;3.00;2.20;;;30.40;62.80;;;;;;5054082;28;20204;-65
2023/06/06 11:53:41;;;;;;;2.30;1.85;;;30.50;61.10;;;;;;5036507;28;20192;-66
2023/06/06 11:56:16;;;;;;;5.72;2.83;;;30.60;61.60;;;;;;5037713;28;20207;-66
2023/06/06 11:58:42;;;;;;;3.22;2.50;;;30.60;59.80;;;;;;5037706;28;20255;-66
2023/06/06 12:01:15;;;;;;;2.25;1.95;;;30.60;60.80;;;;;;5054476;28;20308;-66
2023/06/06 12:03:42;;;;;;;3.08;2.03;;;30.70;59.90;;;;;;5054145;28;20192;-68
2023/06/06 12:06:09;;;;;;;3.75;2.20;;;30.80;59.90;;;;;;5054467;28;20175;-66
2023/06/06 12:08:36;;;;;;;2.25;2.00;;;31.00;59.60;;;;;;5054378;28;20192;-65
2023/06/06 12:11:26;;;;;;;3.05;2.10;;;31.10;59.20;;;;;;5036860;28;20244;-66
2023/06/06 12:13:55;;;;;;;2.63;2.08;;;31.20;56.90;;;;;;5054337;28;20254;-66
2023/06/06 12:16:28;;;;;;;3.03;2.30;;;31.40;57.80;;;;;;5050676;28;20181;-66
2023/06/06 12:18:54;;;;;;;1.98;1.70;;;31.50;56.80;;;;;;5053858;28;20242;-66
2023/06/06 12:21:22;;;;;;;2.53;1.77;;;31.70;57.30;;;;;;5037164;28;20188;-66
2023/06/06 12:23:49;;;;;;;2.13;1.92;;;31.80;56.40;;;;;;5042557;28;20208;-65
2023/06/06 12:26:16;;;;;;;2.33;2.10;;;31.90;55.70;;;;;;5037485;28;20238;-66
2023/06/06 12:28:58;;;;;;;3.30;2.33;;;31.90;55.60;;;;;;5037320;28;20176;-65
2023/06/06 12:31:32;;;;;;;3.03;2.15;;;32.00;53.70;;;;;;5053384;28;20196;-66
2023/06/06 12:34:00;;;;;;;2.58;2.10;;;32.10;54.20;;;;;;5028385;28;20264;-65
2023/06/06 12:36:28;;;;;;;3.65;2.30;;;32.00;53.80;;;;;;5028484;28;20203;-64
2023/06/06 12:38:57;;;;;;;4.20;2.00;;;32.00;52.30;;;;;;5031250;28;20212;-66
2023/06/06 12:41:35;;;;;;;2.67;2.15;;;31.90;52.20;;;;;;5034538;28;20199;-66
2023/06/06 12:44:06;;;;;;;3.58;2.20;;;31.80;52.10;;;;;;5050380;28;20165;-66
2023/06/06 12:46:36;;;;;;;2.72;2.20;;;31.60;51.80;;;;;;5035657;28;20177;-66
2023/06/06 12:49:02;;;;;;;3.70;2.90;;;31.40;51.20;;;;;;5035650;28;20239;-66
2023/06/06 12:51:31;;;;;;;3.17;2.60;;;31.20;50.90;;;;;;5053550;28;20184;-66
2023/06/06 12:53:57;;;;;;;4.47;3.08;;;31.00;51.20;;;;;;5035309;28;20365;-66
2023/06/06 12:56:30;;;;;;;4.30;2.70;;;30.70;51.50;;;;;;5053562;28;20275;-66